sensor_id;sensor_type;location;lat;lon;timestamp;temperature;humidity
27619;DHT22;15039;50.830;4.730;2022-08-30T00:00:21;18.60;99.90
27619;DHT22;15039;50.830;4.730;2022-08-30T00:03:08;18.50;99.90
27619;DHT22;15039;50.830;4.730;2022-08-30T00:05:35;18.40;99.90
27619;DHT22;15039;50.830;4.730;2022-08-30T00:08:01;18.30;99.90
27619;DHT22;15039;50.830;4.730;2022-08-30T00:10:28;18.30;99.90
27619;DHT22;15039;50.830;4.730;2022-08-30T00:12:55;18.10;99.90
27619;DHT22;15039;50.830;4.730;2022-08-30T00:15:22;18.20;99.90
27619;DHT22;15039;50.830;4.730;2022-08-30T00:17:48;18.40;99.90
27619;DHT22;15039;50.830;4.730;2022-08-30T00:20:19;18.50;99.90
27619;DHT22;15039;50.830;4.730;2022-08-30T00:22:46;18.40;99.90
27619;DHT22;15039;50.830;4.730;2022-08-30T00:25:12;18.20;99.90
27619;DHT22;15039;50.830;4.730;2022-08-30T00:27:38;18.10;99.90
27619;DHT22;15039;50.830;4.730;2022-08-30T00:30:05;18.20;99.90
27619;DHT22;15039;50.830;4.730;2022-08-30T00:32:31;18.30;99.90
27619;DHT22;15039;50.830;4.730;2022-08-30T00:34:56;18.60;99.90
27619;DHT22;15039;50.830;4.730;2022-08-30T00:37:22;18.60;99.90
27619;DHT22;15039;50.830;4.730;2022-08-30T00:39:48;18.60;99.90
27619;DHT22;15039;50.830;4.730;2022-08-30T00:42:15;18.70;99.90
27619;DHT22;15039;50.830;4.730;2022-08-30T00:44:41;18.70;99.90
27619;DHT22;15039;50.830;4.730;2022-08-30T00:47:08;18.70;99.90
27619;DHT22;15039;50.830;4.730;2022-08-30T00:49:35;18.70;99.90
27619;DHT22;15039;50.830;4.730;2022-08-30T00:52:02;18.70;99.90
27619;DHT22;15039;50.830;4.730;2022-08-30T00:54:29;18.80;99.90
27619;DHT22;15039;50.830;4.730;2022-08-30T00:56:56;18.70;99.90
27619;DHT22;15039;50.830;4.730;2022-08-30T00:59:23;18.60;99.90
27619;DHT22;15039;50.830;4.730;2022-08-30T01:01:50;18.50;99.90
27619;DHT22;15039;50.830;4.730;2022-08-30T01:04:16;18.40;99.90
27619;DHT22;15039;50.830;4.730;2022-08-30T01:06:44;18.30;99.90
27619;DHT22;15039;50.830;4.730;2022-08-30T01:09:10;18.30;99.90
27619;DHT22;15039;50.830;4.730;2022-08-30T01:11:38;18.40;99.90
27619;DHT22;15039;50.830;4.730;2022-08-30T01:14:06;18.50;99.90
27619;DHT22;15039;50.830;4.730;2022-08-30T01:16:37;18.40;99.90
27619;DHT22;15039;50.830;4.730;2022-08-30T01:19:16;18.40;99.90
27619;DHT22;15039;50.830;4.730;2022-08-30T01:21:56;18.50;99.90
27619;DHT22;15039;50.830;4.730;2022-08-30T01:24:24;18.30;99.90
27619;DHT22;15039;50.830;4.730;2022-08-30T01:26:49;18.10;99.90
27619;DHT22;15039;50.830;4.730;2022-08-30T01:29:20;17.80;99.90
27619;DHT22;15039;50.830;4.730;2022-08-30T01:31:47;17.90;99.90
27619;DHT22;15039;50.830;4.730;2022-08-30T01:34:14;18.00;99.90
27619;DHT22;15039;50.830;4.730;2022-08-30T01:36:41;18.20;99.90
27619;DHT22;15039;50.830;4.730;2022-08-30T01:39:09;18.10;99.90
27619;DHT22;15039;50.830;4.730;2022-08-30T01:41:36;18.10;99.90
27619;DHT22;15039;50.830;4.730;2022-08-30T01:44:07;18.00;99.90
27619;DHT22;15039;50.830;4.730;2022-08-30T01:46:39;17.90;99.90
27619;DHT22;15039;50.830;4.730;2022-08-30T01:49:08;17.90;99.90
27619;DHT22;15039;50.830;4.730;2022-08-30T01:51:34;18.00;99.90
27619;DHT22;15039;50.830;4.730;2022-08-30T01:54:00;18.10;99.90
27619;DHT22;15039;50.830;4.730;2022-08-30T01:56:27;17.90;99.90
27619;DHT22;15039;50.830;4.730;2022-08-30T01:58:53;17.90;99.90
27619;DHT22;15039;50.830;4.730;2022-08-30T02:01:23;17.90;99.90
27619;DHT22;15039;50.830;4.730;2022-08-30T02:03:51;17.90;99.90
27619;DHT22;15039;50.830;4.730;2022-08-30T02:06:19;17.80;99.90
27619;DHT22;15039;50.830;4.730;2022-08-30T02:08:45;17.80;99.90
27619;DHT22;15039;50.830;4.730;2022-08-30T02:11:12;17.60;99.90
27619;DHT22;15039;50.830;4.730;2022-08-30T02:13:39;17.50;99.90
27619;DHT22;15039;50.830;4.730;2022-08-30T02:16:08;17.40;99.90
27619;DHT22;15039;50.830;4.730;2022-08-30T02:18:36;17.40;99.90
27619;DHT22;15039;50.830;4.730;2022-08-30T02:21:03;17.30;99.90
27619;DHT22;15039;50.830;4.730;2022-08-30T02:23:29;17.20;99.90
27619;DHT22;15039;50.830;4.730;2022-08-30T02:25:55;17.20;99.90
27619;DHT22;15039;50.830;4.730;2022-08-30T02:28:24;17.30;99.90
27619;DHT22;15039;50.830;4.730;2022-08-30T02:30:51;17.20;99.90
27619;DHT22;15039;50.830;4.730;2022-08-30T02:33:17;17.20;99.90
27619;DHT22;15039;50.830;4.730;2022-08-30T02:35:43;17.10;99.90
27619;DHT22;15039;50.830;4.730;2022-08-30T02:38:08;17.20;99.90
27619;DHT22;15039;50.830;4.730;2022-08-30T02:40:34;17.30;99.90
27619;DHT22;15039;50.830;4.730;2022-08-30T02:43:00;17.30;99.90
27619;DHT22;15039;50.830;4.730;2022-08-30T02:45:26;17.40;99.90
27619;DHT22;15039;50.830;4.730;2022-08-30T02:47:51;17.30;99.90
27619;DHT22;15039;50.830;4.730;2022-08-30T02:50:17;17.10;99.90
27619;DHT22;15039;50.830;4.730;2022-08-30T02:52:43;17.10;99.90
27619;DHT22;15039;50.830;4.730;2022-08-30T02:55:09;17.10;99.90
27619;DHT22;15039;50.830;4.730;2022-08-30T02:57:35;16.90;99.90
27619;DHT22;15039;50.830;4.730;2022-08-30T03:00:05;16.90;99.90
27619;DHT22;15039;50.830;4.730;2022-08-30T03:02:31;16.80;99.90
27619;DHT22;15039;50.830;4.730;2022-08-30T03:04:57;16.70;99.90
27619;DHT22;15039;50.830;4.730;2022-08-30T03:07:23;16.70;99.90
27619;DHT22;15039;50.830;4.730;2022-08-30T03:09:48;16.80;99.90
27619;DHT22;15039;50.830;4.730;2022-08-30T03:12:14;16.90;99.90
27619;DHT22;15039;50.830;4.730;2022-08-30T03:14:40;17.00;99.90
27619;DHT22;15039;50.830;4.730;2022-08-30T03:17:07;17.00;99.90
27619;DHT22;15039;50.830;4.730;2022-08-30T03:19:34;17.00;99.90
27619;DHT22;15039;50.830;4.730;2022-08-30T03:22:02;17.00;99.90
27619;DHT22;15039;50.830;4.730;2022-08-30T03:24:28;17.10;99.90
27619;DHT22;15039;50.830;4.730;2022-08-30T03:26:53;17.10;99.90
27619;DHT22;15039;50.830;4.730;2022-08-30T03:29:19;17.10;99.90
27619;DHT22;15039;50.830;4.730;2022-08-30T03:31:45;17.00;99.90
27619;DHT22;15039;50.830;4.730;2022-08-30T03:34:11;17.10;99.90
27619;DHT22;15039;50.830;4.730;2022-08-30T03:36:37;17.20;99.90
27619;DHT22;15039;50.830;4.730;2022-08-30T03:39:04;17.10;99.90
27619;DHT22;15039;50.830;4.730;2022-08-30T03:41:31;17.20;99.90
27619;DHT22;15039;50.830;4.730;2022-08-30T03:43:58;17.30;99.90
27619;DHT22;15039;50.830;4.730;2022-08-30T03:46:24;17.20;99.90
27619;DHT22;15039;50.830;4.730;2022-08-30T03:48:50;17.20;99.90
27619;DHT22;15039;50.830;4.730;2022-08-30T03:51:17;17.20;99.90
27619;DHT22;15039;50.830;4.730;2022-08-30T03:53:43;17.20;99.90
27619;DHT22;15039;50.830;4.730;2022-08-30T03:56:08;17.20;99.90
27619;DHT22;15039;50.830;4.730;2022-08-30T03:58:34;17.40;99.90
27619;DHT22;15039;50.830;4.730;2022-08-30T04:01:00;17.40;99.90
27619;DHT22;15039;50.830;4.730;2022-08-30T04:03:26;17.40;99.90
27619;DHT22;15039;50.830;4.730;2022-08-30T04:05:52;17.40;99.90
27619;DHT22;15039;50.830;4.730;2022-08-30T04:08:18;17.50;99.90
27619;DHT22;15039;50.830;4.730;2022-08-30T04:10:45;17.40;99.90
27619;DHT22;15039;50.830;4.730;2022-08-30T04:13:15;17.40;99.90
27619;DHT22;15039;50.830;4.730;2022-08-30T04:15:41;17.30;99.90
27619;DHT22;15039;50.830;4.730;2022-08-30T04:18:09;17.30;99.90
27619;DHT22;15039;50.830;4.730;2022-08-30T04:20:38;17.30;99.90
27619;DHT22;15039;50.830;4.730;2022-08-30T04:23:05;17.40;99.90
27619;DHT22;15039;50.830;4.730;2022-08-30T04:25:37;17.30;99.90
27619;DHT22;15039;50.830;4.730;2022-08-30T04:28:05;17.20;99.90
27619;DHT22;15039;50.830;4.730;2022-08-30T04:30:31;17.20;99.90
27619;DHT22;15039;50.830;4.730;2022-08-30T04:32:57;17.20;99.90
27619;DHT22;15039;50.830;4.730;2022-08-30T04:35:23;17.10;99.90
27619;DHT22;15039;50.830;4.730;2022-08-30T04:37:49;17.00;99.90
27619;DHT22;15039;50.830;4.730;2022-08-30T04:40:14;17.10;99.90
27619;DHT22;15039;50.830;4.730;2022-08-30T04:42:41;17.00;99.90
27619;DHT22;15039;50.830;4.730;2022-08-30T04:45:11;16.90;99.90
27619;DHT22;15039;50.830;4.730;2022-08-30T04:47:39;16.90;99.90
27619;DHT22;15039;50.830;4.730;2022-08-30T04:50:07;16.80;99.90
27619;DHT22;15039;50.830;4.730;2022-08-30T04:52:33;16.70;99.90
27619;DHT22;15039;50.830;4.730;2022-08-30T04:54:58;16.50;99.90
27619;DHT22;15039;50.830;4.730;2022-08-30T04:57:25;16.70;99.90
27619;DHT22;15039;50.830;4.730;2022-08-30T04:59:52;16.80;99.90
27619;DHT22;15039;50.830;4.730;2022-08-30T05:02:17;16.70;99.90
27619;DHT22;15039;50.830;4.730;2022-08-30T05:04:43;16.70;99.90
27619;DHT22;15039;50.830;4.730;2022-08-30T05:07:28;16.70;99.90
27619;DHT22;15039;50.830;4.730;2022-08-30T05:09:53;16.70;99.90
27619;DHT22;15039;50.830;4.730;2022-08-30T05:12:19;16.80;99.90
27619;DHT22;15039;50.830;4.730;2022-08-30T05:14:45;16.60;99.90
27619;DHT22;15039;50.830;4.730;2022-08-30T05:17:10;16.70;99.90
27619;DHT22;15039;50.830;4.730;2022-08-30T05:19:36;16.80;99.90
27619;DHT22;15039;50.830;4.730;2022-08-30T05:22:02;16.80;99.90
27619;DHT22;15039;50.830;4.730;2022-08-30T05:24:27;16.70;99.90
27619;DHT22;15039;50.830;4.730;2022-08-30T05:26:53;16.80;99.90
27619;DHT22;15039;50.830;4.730;2022-08-30T05:29:18;16.70;99.90
27619;DHT22;15039;50.830;4.730;2022-08-30T05:31:45;16.90;99.90
27619;DHT22;15039;50.830;4.730;2022-08-30T05:34:11;17.00;99.90
27619;DHT22;15039;50.830;4.730;2022-08-30T05:36:37;17.00;99.90
27619;DHT22;15039;50.830;4.730;2022-08-30T05:39:04;17.00;99.90
27619;DHT22;15039;50.830;4.730;2022-08-30T05:41:30;17.00;99.90
27619;DHT22;15039;50.830;4.730;2022-08-30T05:43:58;17.00;99.90
27619;DHT22;15039;50.830;4.730;2022-08-30T05:46:24;17.10;99.90
27619;DHT22;15039;50.830;4.730;2022-08-30T05:48:54;17.10;99.90
27619;DHT22;15039;50.830;4.730;2022-08-30T05:51:22;17.20;99.90
27619;DHT22;15039;50.830;4.730;2022-08-30T05:53:50;17.40;99.90
27619;DHT22;15039;50.830;4.730;2022-08-30T05:56:20;17.40;99.90
27619;DHT22;15039;50.830;4.730;2022-08-30T05:58:46;17.50;99.90
27619;DHT22;15039;50.830;4.730;2022-08-30T06:01:34;17.60;99.90
27619;DHT22;15039;50.830;4.730;2022-08-30T06:04:02;17.80;99.90
27619;DHT22;15039;50.830;4.730;2022-08-30T06:06:29;17.60;99.90
27619;DHT22;15039;50.830;4.730;2022-08-30T06:08:55;17.60;99.90
27619;DHT22;15039;50.830;4.730;2022-08-30T06:11:22;17.60;99.90
27619;DHT22;15039;50.830;4.730;2022-08-30T06:13:50;17.80;99.90
27619;DHT22;15039;50.830;4.730;2022-08-30T06:16:18;17.90;99.90
27619;DHT22;15039;50.830;4.730;2022-08-30T06:18:45;18.10;99.90
27619;DHT22;15039;50.830;4.730;2022-08-30T06:21:25;18.20;99.90
27619;DHT22;15039;50.830;4.730;2022-08-30T06:23:52;18.20;99.90
27619;DHT22;15039;50.830;4.730;2022-08-30T06:26:21;18.20;99.90
27619;DHT22;15039;50.830;4.730;2022-08-30T06:28:47;18.20;99.90
27619;DHT22;15039;50.830;4.730;2022-08-30T06:31:15;18.20;99.90
27619;DHT22;15039;50.830;4.730;2022-08-30T06:33:41;18.40;99.90
27619;DHT22;15039;50.830;4.730;2022-08-30T06:36:16;18.30;99.90
27619;DHT22;15039;50.830;4.730;2022-08-30T06:38:44;18.40;99.90
27619;DHT22;15039;50.830;4.730;2022-08-30T06:41:15;18.50;99.90
27619;DHT22;15039;50.830;4.730;2022-08-30T06:43:42;18.60;99.90
27619;DHT22;15039;50.830;4.730;2022-08-30T06:46:10;18.70;99.90
27619;DHT22;15039;50.830;4.730;2022-08-30T06:48:37;18.80;99.90
27619;DHT22;15039;50.830;4.730;2022-08-30T06:51:03;18.90;99.90
27619;DHT22;15039;50.830;4.730;2022-08-30T06:53:29;19.00;99.90
27619;DHT22;15039;50.830;4.730;2022-08-30T06:56:03;19.10;99.90
27619;DHT22;15039;50.830;4.730;2022-08-30T06:58:31;19.00;99.90
27619;DHT22;15039;50.830;4.730;2022-08-30T07:00:57;19.10;99.90
27619;DHT22;15039;50.830;4.730;2022-08-30T07:03:23;19.30;99.90
27619;DHT22;15039;50.830;4.730;2022-08-30T07:05:52;19.30;99.90
27619;DHT22;15039;50.830;4.730;2022-08-30T07:08:19;19.50;99.90
27619;DHT22;15039;50.830;4.730;2022-08-30T07:10:45;19.50;99.90
27619;DHT22;15039;50.830;4.730;2022-08-30T07:13:11;19.60;99.90
27619;DHT22;15039;50.830;4.730;2022-08-30T07:15:40;19.70;99.90
27619;DHT22;15039;50.830;4.730;2022-08-30T07:18:05;19.90;99.90
27619;DHT22;15039;50.830;4.730;2022-08-30T07:20:50;19.90;99.90
27619;DHT22;15039;50.830;4.730;2022-08-30T07:23:15;20.00;99.90
27619;DHT22;15039;50.830;4.730;2022-08-30T07:25:41;20.20;99.90
27619;DHT22;15039;50.830;4.730;2022-08-30T07:28:08;20.30;99.90
27619;DHT22;15039;50.830;4.730;2022-08-30T07:30:34;20.30;99.90
27619;DHT22;15039;50.830;4.730;2022-08-30T07:33:00;20.40;99.90
27619;DHT22;15039;50.830;4.730;2022-08-30T07:35:26;20.50;99.90
27619;DHT22;15039;50.830;4.730;2022-08-30T07:37:52;20.60;99.90
27619;DHT22;15039;50.830;4.730;2022-08-30T07:40:18;20.60;99.90
27619;DHT22;15039;50.830;4.730;2022-08-30T07:42:43;20.60;99.90
27619;DHT22;15039;50.830;4.730;2022-08-30T07:45:10;20.60;99.90
27619;DHT22;15039;50.830;4.730;2022-08-30T07:47:36;20.70;99.90
27619;DHT22;15039;50.830;4.730;2022-08-30T07:50:04;20.80;99.90
27619;DHT22;15039;50.830;4.730;2022-08-30T07:52:31;21.00;99.90
27619;DHT22;15039;50.830;4.730;2022-08-30T07:54:57;21.20;99.90
27619;DHT22;15039;50.830;4.730;2022-08-30T07:57:23;21.20;99.90
27619;DHT22;15039;50.830;4.730;2022-08-30T07:59:50;21.30;99.90
27619;DHT22;15039;50.830;4.730;2022-08-30T08:02:17;21.30;99.90
27619;DHT22;15039;50.830;4.730;2022-08-30T08:04:43;21.50;99.90
27619;DHT22;15039;50.830;4.730;2022-08-30T08:07:10;21.50;99.90
27619;DHT22;15039;50.830;4.730;2022-08-30T08:09:36;21.50;99.90
27619;DHT22;15039;50.830;4.730;2022-08-30T08:12:03;21.60;99.90
27619;DHT22;15039;50.830;4.730;2022-08-30T08:14:32;21.60;99.90
27619;DHT22;15039;50.830;4.730;2022-08-30T08:16:57;21.70;99.90
27619;DHT22;15039;50.830;4.730;2022-08-30T08:19:24;21.60;99.90
27619;DHT22;15039;50.830;4.730;2022-08-30T08:21:50;21.60;99.90
27619;DHT22;15039;50.830;4.730;2022-08-30T08:24:22;21.60;99.90
27619;DHT22;15039;50.830;4.730;2022-08-30T08:26:48;21.50;99.90
27619;DHT22;15039;50.830;4.730;2022-08-30T08:29:14;21.60;99.90
27619;DHT22;15039;50.830;4.730;2022-08-30T08:31:40;21.70;99.90
27619;DHT22;15039;50.830;4.730;2022-08-30T08:34:07;21.80;99.90
27619;DHT22;15039;50.830;4.730;2022-08-30T08:36:34;22.10;99.90
27619;DHT22;15039;50.830;4.730;2022-08-30T08:39:01;22.20;99.90
27619;DHT22;15039;50.830;4.730;2022-08-30T08:43:52;22.20;99.90
27619;DHT22;15039;50.830;4.730;2022-08-30T08:46:27;22.20;99.90
27619;DHT22;15039;50.830;4.730;2022-08-30T08:48:57;22.50;99.90
27619;DHT22;15039;50.830;4.730;2022-08-30T08:51:30;22.50;99.90
27619;DHT22;15039;50.830;4.730;2022-08-30T08:54:45;22.50;99.90
27619;DHT22;15039;50.830;4.730;2022-08-30T08:57:12;22.70;99.90
27619;DHT22;15039;50.830;4.730;2022-08-30T08:59:38;22.60;99.90
27619;DHT22;15039;50.830;4.730;2022-08-30T09:02:23;22.60;99.90
27619;DHT22;15039;50.830;4.730;2022-08-30T09:04:50;22.60;99.90
27619;DHT22;15039;50.830;4.730;2022-08-30T09:07:25;22.70;99.90
27619;DHT22;15039;50.830;4.730;2022-08-30T09:09:52;22.60;99.90
27619;DHT22;15039;50.830;4.730;2022-08-30T09:12:18;22.70;99.90
27619;DHT22;15039;50.830;4.730;2022-08-30T09:14:52;22.90;99.90
27619;DHT22;15039;50.830;4.730;2022-08-30T09:17:19;22.90;99.90
27619;DHT22;15039;50.830;4.730;2022-08-30T09:22:37;23.00;99.90
27619;DHT22;15039;50.830;4.730;2022-08-30T09:27:43;23.10;99.90
27619;DHT22;15039;50.830;4.730;2022-08-30T09:30:16;23.30;99.90
27619;DHT22;15039;50.830;4.730;2022-08-30T09:35:21;23.20;99.90
27619;DHT22;15039;50.830;4.730;2022-08-30T09:37:56;23.20;99.90
27619;DHT22;15039;50.830;4.730;2022-08-30T09:43:09;23.40;99.90
27619;DHT22;15039;50.830;4.730;2022-08-30T09:45:37;23.50;99.90
27619;DHT22;15039;50.830;4.730;2022-08-30T09:53:32;24.00;99.90
27619;DHT22;15039;50.830;4.730;2022-08-30T10:06:36;24.50;99.30
27619;DHT22;15039;50.830;4.730;2022-08-30T10:17:07;24.90;98.40
27619;DHT22;15039;50.830;4.730;2022-08-30T10:22:33;24.80;98.00
27619;DHT22;15039;50.830;4.730;2022-08-30T10:25:09;24.90;98.00
27619;DHT22;15039;50.830;4.730;2022-08-30T10:27:45;24.90;98.30
27619;DHT22;15039;50.830;4.730;2022-08-30T10:30:14;25.00;98.30
27619;DHT22;15039;50.830;4.730;2022-08-30T10:32:52;25.10;98.00
27619;DHT22;15039;50.830;4.730;2022-08-30T10:35:27;25.10;98.20
27619;DHT22;15039;50.830;4.730;2022-08-30T10:38:07;25.10;97.40
27619;DHT22;15039;50.830;4.730;2022-08-30T10:40:37;25.10;97.80
27619;DHT22;15039;50.830;4.730;2022-08-30T10:46:34;25.10;97.50
27619;DHT22;15039;50.830;4.730;2022-08-30T10:49:03;25.30;97.20
27619;DHT22;15039;50.830;4.730;2022-08-30T10:51:49;25.40;97.40
27619;DHT22;15039;50.830;4.730;2022-08-30T10:54:35;25.50;97.30
27619;DHT22;15039;50.830;4.730;2022-08-30T10:57:04;25.60;97.00
27619;DHT22;15039;50.830;4.730;2022-08-30T10:59:31;25.60;96.80
27619;DHT22;15039;50.830;4.730;2022-08-30T11:10:29;25.60;96.90
27619;DHT22;15039;50.830;4.730;2022-08-30T11:13:08;25.70;96.80
27619;DHT22;15039;50.830;4.730;2022-08-30T11:16:09;25.70;96.70
27619;DHT22;15039;50.830;4.730;2022-08-30T11:24:38;26.10;96.00
27619;DHT22;15039;50.830;4.730;2022-08-30T11:27:00;26.40;95.60
27619;DHT22;15039;50.830;4.730;2022-08-30T11:31:52;26.70;95.30
27619;DHT22;15039;50.830;4.730;2022-08-30T11:39:55;27.20;94.60
27619;DHT22;15039;50.830;4.730;2022-08-30T11:42:26;27.40;94.50
27619;DHT22;15039;50.830;4.730;2022-08-30T11:56:09;27.30;94.40
27619;DHT22;15039;50.830;4.730;2022-08-30T12:01:33;27.50;94.00
27619;DHT22;15039;50.830;4.730;2022-08-30T12:18:18;27.40;94.00
27619;DHT22;15039;50.830;4.730;2022-08-30T12:20:40;27.60;93.80
27619;DHT22;15039;50.830;4.730;2022-08-30T12:23:46;27.50;93.30
27619;DHT22;15039;50.830;4.730;2022-08-30T12:31:31;27.10;93.80
27619;DHT22;15039;50.830;4.730;2022-08-30T12:34:00;27.10;93.70
27619;DHT22;15039;50.830;4.730;2022-08-30T12:36:47;27.00;94.10
27619;DHT22;15039;50.830;4.730;2022-08-30T12:39:29;27.10;94.30
27619;DHT22;15039;50.830;4.730;2022-08-30T12:42:09;27.20;94.20
27619;DHT22;15039;50.830;4.730;2022-08-30T12:44:35;27.20;93.80
27619;DHT22;15039;50.830;4.730;2022-08-30T12:47:03;27.40;93.60
27619;DHT22;15039;50.830;4.730;2022-08-30T12:49:30;27.40;93.50
27619;DHT22;15039;50.830;4.730;2022-08-30T12:54:42;27.50;93.50
27619;DHT22;15039;50.830;4.730;2022-08-30T12:57:10;27.60;93.70
27619;DHT22;15039;50.830;4.730;2022-08-30T12:59:49;27.50;93.70
27619;DHT22;15039;50.830;4.730;2022-08-30T13:02:21;27.40;93.80
27619;DHT22;15039;50.830;4.730;2022-08-30T13:04:49;27.20;93.60
27619;DHT22;15039;50.830;4.730;2022-08-30T13:07:32;27.20;93.10
27619;DHT22;15039;50.830;4.730;2022-08-30T13:10:03;27.40;93.60
27619;DHT22;15039;50.830;4.730;2022-08-30T13:12:29;27.60;93.90
27619;DHT22;15039;50.830;4.730;2022-08-30T13:15:15;27.90;93.60
27619;DHT22;15039;50.830;4.730;2022-08-30T13:17:42;28.20;93.20
27619;DHT22;15039;50.830;4.730;2022-08-30T13:22:39;28.20;93.10
27619;DHT22;15039;50.830;4.730;2022-08-30T13:25:06;28.00;93.20
27619;DHT22;15039;50.830;4.730;2022-08-30T13:27:34;27.80;93.00
27619;DHT22;15039;50.830;4.730;2022-08-30T13:30:08;27.70;93.10
27619;DHT22;15039;50.830;4.730;2022-08-30T13:32:34;27.80;93.20
27619;DHT22;15039;50.830;4.730;2022-08-30T13:35:03;27.90;93.70
27619;DHT22;15039;50.830;4.730;2022-08-30T13:37:30;27.70;93.60
27619;DHT22;15039;50.830;4.730;2022-08-30T13:39:57;27.50;93.70
27619;DHT22;15039;50.830;4.730;2022-08-30T13:42:23;27.50;93.90
27619;DHT22;15039;50.830;4.730;2022-08-30T13:44:48;27.40;93.40
27619;DHT22;15039;50.830;4.730;2022-08-30T13:47:15;27.40;93.60
27619;DHT22;15039;50.830;4.730;2022-08-30T13:49:41;27.40;93.50
27619;DHT22;15039;50.830;4.730;2022-08-30T13:52:09;27.40;93.60
27619;DHT22;15039;50.830;4.730;2022-08-30T13:54:35;27.40;93.60
27619;DHT22;15039;50.830;4.730;2022-08-30T13:57:01;27.50;93.80
27619;DHT22;15039;50.830;4.730;2022-08-30T13:59:27;27.60;93.70
27619;DHT22;15039;50.830;4.730;2022-08-30T14:01:54;27.50;93.50
27619;DHT22;15039;50.830;4.730;2022-08-30T14:04:20;27.50;93.60
27619;DHT22;15039;50.830;4.730;2022-08-30T14:06:46;27.20;93.70
27619;DHT22;15039;50.830;4.730;2022-08-30T14:09:12;27.10;93.80
27619;DHT22;15039;50.830;4.730;2022-08-30T14:11:39;27.10;93.60
27619;DHT22;15039;50.830;4.730;2022-08-30T14:14:05;27.10;93.70
27619;DHT22;15039;50.830;4.730;2022-08-30T14:16:31;27.40;93.70
27619;DHT22;15039;50.830;4.730;2022-08-30T14:18:58;27.50;93.20
27619;DHT22;15039;50.830;4.730;2022-08-30T14:21:26;27.70;93.30
27619;DHT22;15039;50.830;4.730;2022-08-30T14:23:53;27.90;93.20
27619;DHT22;15039;50.830;4.730;2022-08-30T14:26:43;27.90;93.40
27619;DHT22;15039;50.830;4.730;2022-08-30T14:29:14;28.00;93.40
27619;DHT22;15039;50.830;4.730;2022-08-30T14:31:44;28.00;93.40
27619;DHT22;15039;50.830;4.730;2022-08-30T14:34:10;28.00;92.90
27619;DHT22;15039;50.830;4.730;2022-08-30T14:36:39;27.90;93.10
27619;DHT22;15039;50.830;4.730;2022-08-30T14:39:07;27.80;93.20
27619;DHT22;15039;50.830;4.730;2022-08-30T14:41:34;27.60;93.20
27619;DHT22;15039;50.830;4.730;2022-08-30T14:43:59;27.10;93.50
27619;DHT22;15039;50.830;4.730;2022-08-30T14:46:25;27.00;93.70
27619;DHT22;15039;50.830;4.730;2022-08-30T14:48:52;26.80;93.90
27619;DHT22;15039;50.830;4.730;2022-08-30T14:51:21;26.90;94.00
27619;DHT22;15039;50.830;4.730;2022-08-30T14:53:49;26.70;94.20
27619;DHT22;15039;50.830;4.730;2022-08-30T14:56:17;26.90;93.90
27619;DHT22;15039;50.830;4.730;2022-08-30T14:58:43;27.00;93.70
27619;DHT22;15039;50.830;4.730;2022-08-30T15:01:10;27.20;93.60
27619;DHT22;15039;50.830;4.730;2022-08-30T15:03:37;27.20;93.70
27619;DHT22;15039;50.830;4.730;2022-08-30T15:06:04;27.20;93.60
27619;DHT22;15039;50.830;4.730;2022-08-30T15:08:29;27.20;93.70
27619;DHT22;15039;50.830;4.730;2022-08-30T15:10:55;27.20;93.70
27619;DHT22;15039;50.830;4.730;2022-08-30T15:13:21;27.30;93.40
27619;DHT22;15039;50.830;4.730;2022-08-30T15:15:46;27.50;93.40
27619;DHT22;15039;50.830;4.730;2022-08-30T15:18:13;27.40;93.60
27619;DHT22;15039;50.830;4.730;2022-08-30T15:20:46;27.40;93.20
27619;DHT22;15039;50.830;4.730;2022-08-30T15:23:13;27.50;93.10
27619;DHT22;15039;50.830;4.730;2022-08-30T15:25:38;27.50;93.30
27619;DHT22;15039;50.830;4.730;2022-08-30T15:28:04;27.50;93.10
27619;DHT22;15039;50.830;4.730;2022-08-30T15:30:29;27.30;93.30
27619;DHT22;15039;50.830;4.730;2022-08-30T15:32:55;27.10;93.20
27619;DHT22;15039;50.830;4.730;2022-08-30T15:35:21;27.00;93.50
27619;DHT22;15039;50.830;4.730;2022-08-30T15:37:46;26.90;93.50
27619;DHT22;15039;50.830;4.730;2022-08-30T15:40:12;27.10;93.50
27619;DHT22;15039;50.830;4.730;2022-08-30T15:42:38;27.00;93.70
27619;DHT22;15039;50.830;4.730;2022-08-30T15:45:04;27.00;94.20
27619;DHT22;15039;50.830;4.730;2022-08-30T15:47:29;27.10;93.70
27619;DHT22;15039;50.830;4.730;2022-08-30T15:49:57;26.90;93.60
27619;DHT22;15039;50.830;4.730;2022-08-30T15:52:24;26.90;93.80
27619;DHT22;15039;50.830;4.730;2022-08-30T15:54:50;27.10;93.40
27619;DHT22;15039;50.830;4.730;2022-08-30T15:57:16;26.80;93.60
27619;DHT22;15039;50.830;4.730;2022-08-30T15:59:42;26.70;93.80
27619;DHT22;15039;50.830;4.730;2022-08-30T16:02:07;26.70;93.90
27619;DHT22;15039;50.830;4.730;2022-08-30T16:04:33;26.40;94.20
27619;DHT22;15039;50.830;4.730;2022-08-30T16:06:59;26.40;94.30
27619;DHT22;15039;50.830;4.730;2022-08-30T16:09:25;26.60;94.00
27619;DHT22;15039;50.830;4.730;2022-08-30T16:11:53;26.60;94.20
27619;DHT22;15039;50.830;4.730;2022-08-30T16:14:19;26.70;93.90
27619;DHT22;15039;50.830;4.730;2022-08-30T16:16:44;26.60;94.10
27619;DHT22;15039;50.830;4.730;2022-08-30T16:19:13;26.60;94.00
27619;DHT22;15039;50.830;4.730;2022-08-30T16:21:39;26.60;94.10
27619;DHT22;15039;50.830;4.730;2022-08-30T16:24:07;26.70;94.00
27619;DHT22;15039;50.830;4.730;2022-08-30T16:26:34;26.70;93.90
27619;DHT22;15039;50.830;4.730;2022-08-30T16:29:00;26.70;94.10
27619;DHT22;15039;50.830;4.730;2022-08-30T16:31:28;26.50;94.10
27619;DHT22;15039;50.830;4.730;2022-08-30T16:33:54;26.40;94.30
27619;DHT22;15039;50.830;4.730;2022-08-30T16:36:21;26.60;94.20
27619;DHT22;15039;50.830;4.730;2022-08-30T16:38:47;26.70;94.00
27619;DHT22;15039;50.830;4.730;2022-08-30T16:41:14;26.70;93.90
27619;DHT22;15039;50.830;4.730;2022-08-30T16:43:40;26.40;94.10
27619;DHT22;15039;50.830;4.730;2022-08-30T16:46:09;26.30;94.20
27619;DHT22;15039;50.830;4.730;2022-08-30T16:48:36;26.20;94.30
27619;DHT22;15039;50.830;4.730;2022-08-30T16:51:07;26.30;94.30
27619;DHT22;15039;50.830;4.730;2022-08-30T16:53:34;26.40;94.10
27619;DHT22;15039;50.830;4.730;2022-08-30T16:56:14;26.10;94.00
27619;DHT22;15039;50.830;4.730;2022-08-30T16:58:41;25.90;94.30
27619;DHT22;15039;50.830;4.730;2022-08-30T17:01:07;25.70;94.50
27619;DHT22;15039;50.830;4.730;2022-08-30T17:03:33;25.70;94.50
27619;DHT22;15039;50.830;4.730;2022-08-30T17:05:59;25.50;94.60
27619;DHT22;15039;50.830;4.730;2022-08-30T17:08:25;25.70;94.50
27619;DHT22;15039;50.830;4.730;2022-08-30T17:10:51;25.70;94.50
27619;DHT22;15039;50.830;4.730;2022-08-30T17:13:17;25.70;94.60
27619;DHT22;15039;50.830;4.730;2022-08-30T17:15:43;25.60;94.50
27619;DHT22;15039;50.830;4.730;2022-08-30T17:18:19;25.40;94.70
27619;DHT22;15039;50.830;4.730;2022-08-30T17:20:45;25.50;94.70